sensor_id;sensor_type;location;lat;lon;timestamp;temperature;humidity
49132;DHT22;35149;51.196;6.204;2023-03-14T00:01:33;15.30;62.40
49132;DHT22;35149;51.196;6.204;2023-03-14T00:03:59;15.30;63.00
49132;DHT22;35149;51.196;6.204;2023-03-14T00:06:29;15.20;63.20
49132;DHT22;35149;51.196;6.204;2023-03-14T00:08:58;15.20;63.90
49132;DHT22;35149;51.196;6.204;2023-03-14T00:11:25;15.00;64.40
49132;DHT22;35149;51.196;6.204;2023-03-14T00:14:02;15.00;64.50
49132;DHT22;35149;51.196;6.204;2023-03-14T00:16:34;14.90;64.60
49132;DHT22;35149;51.196;6.204;2023-03-14T00:19:03;14.70;65.20
49132;DHT22;35149;51.196;6.204;2023-03-14T00:21:31;14.60;65.30
49132;DHT22;35149;51.196;6.204;2023-03-14T00:23:58;14.50;65.50
49132;DHT22;35149;51.196;6.204;2023-03-14T00:26:24;14.40;65.90
49132;DHT22;35149;51.196;6.204;2023-03-14T00:28:55;14.30;66.10
49132;DHT22;35149;51.196;6.204;2023-03-14T00:31:22;14.20;66.30
49132;DHT22;35149;51.196;6.204;2023-03-14T00:33:51;14.20;66.70
49132;DHT22;35149;51.196;6.204;2023-03-14T00:36:19;14.10;66.80
49132;DHT22;35149;51.196;6.204;2023-03-14T00:38:52;14.00;66.60
49132;DHT22;35149;51.196;6.204;2023-03-14T00:41:21;14.00;66.70
49132;DHT22;35149;51.196;6.204;2023-03-14T00:43:51;13.90;66.70
49132;DHT22;35149;51.196;6.204;2023-03-14T00:46:22;13.90;66.90
49132;DHT22;35149;51.196;6.204;2023-03-14T00:48:55;13.80;66.70
49132;DHT22;35149;51.196;6.204;2023-03-14T00:51:24;13.80;66.90
49132;DHT22;35149;51.196;6.204;2023-03-14T00:54:01;13.80;66.60
49132;DHT22;35149;51.196;6.204;2023-03-14T00:56:37;13.70;66.80
49132;DHT22;35149;51.196;6.204;2023-03-14T00:59:06;13.70;66.80
49132;DHT22;35149;51.196;6.204;2023-03-14T01:01:33;13.70;66.60
49132;DHT22;35149;51.196;6.204;2023-03-14T01:04:04;13.60;66.70
49132;DHT22;35149;51.196;6.204;2023-03-14T01:06:36;13.60;66.70
49132;DHT22;35149;51.196;6.204;2023-03-14T01:09:03;13.60;66.90
49132;DHT22;35149;51.196;6.204;2023-03-14T01:11:41;13.60;66.90
49132;DHT22;35149;51.196;6.204;2023-03-14T01:14:10;13.60;67.10
49132;DHT22;35149;51.196;6.204;2023-03-14T01:16:36;13.60;67.10
49132;DHT22;35149;51.196;6.204;2023-03-14T01:19:12;13.50;67.60
49132;DHT22;35149;51.196;6.204;2023-03-14T01:21:39;13.60;67.10
49132;DHT22;35149;51.196;6.204;2023-03-14T01:24:06;13.60;67.10
49132;DHT22;35149;51.196;6.204;2023-03-14T01:26:34;13.60;67.10
49132;DHT22;35149;51.196;6.204;2023-03-14T01:29:03;13.60;66.90
49132;DHT22;35149;51.196;6.204;2023-03-14T01:31:33;13.60;66.70
49132;DHT22;35149;51.196;6.204;2023-03-14T01:34:00;13.60;66.60
49132;DHT22;35149;51.196;6.204;2023-03-14T01:36:35;13.60;66.60
49132;DHT22;35149;51.196;6.204;2023-03-14T01:39:02;13.60;66.50
49132;DHT22;35149;51.196;6.204;2023-03-14T01:41:32;13.60;66.40
49132;DHT22;35149;51.196;6.204;2023-03-14T01:44:00;13.60;66.40
49132;DHT22;35149;51.196;6.204;2023-03-14T01:46:45;13.60;66.50
49132;DHT22;35149;51.196;6.204;2023-03-14T01:49:33;13.70;66.90
49132;DHT22;35149;51.196;6.204;2023-03-14T01:54:42;13.70;66.70
49132;DHT22;35149;51.196;6.204;2023-03-14T01:57:21;13.70;66.50
49132;DHT22;35149;51.196;6.204;2023-03-14T01:59:55;13.80;66.60
49132;DHT22;35149;51.196;6.204;2023-03-14T02:02:27;13.80;66.60
49132;DHT22;35149;51.196;6.204;2023-03-14T02:05:05;13.70;66.40
49132;DHT22;35149;51.196;6.204;2023-03-14T02:07:47;13.70;67.20
49132;DHT22;35149;51.196;6.204;2023-03-14T02:10:24;13.70;67.00
49132;DHT22;35149;51.196;6.204;2023-03-14T02:13:01;13.70;66.60
49132;DHT22;35149;51.196;6.204;2023-03-14T02:15:38;13.70;66.60
49132;DHT22;35149;51.196;6.204;2023-03-14T02:18:18;13.70;66.50
49132;DHT22;35149;51.196;6.204;2023-03-14T02:23:58;13.70;66.60
49132;DHT22;35149;51.196;6.204;2023-03-14T02:26:42;13.70;66.60
49132;DHT22;35149;51.196;6.204;2023-03-14T02:29:14;13.70;66.60
49132;DHT22;35149;51.196;6.204;2023-03-14T02:31:53;13.70;66.50
49132;DHT22;35149;51.196;6.204;2023-03-14T02:34:28;13.70;66.40
49132;DHT22;35149;51.196;6.204;2023-03-14T02:37:08;13.60;66.30
49132;DHT22;35149;51.196;6.204;2023-03-14T02:39:56;13.60;66.70
49132;DHT22;35149;51.196;6.204;2023-03-14T02:42:24;13.60;66.40
49132;DHT22;35149;51.196;6.204;2023-03-14T02:47:51;13.60;67.00
49132;DHT22;35149;51.196;6.204;2023-03-14T02:50:26;13.70;66.70
49132;DHT22;35149;51.196;6.204;2023-03-14T02:53:02;13.70;66.70
49132;DHT22;35149;51.196;6.204;2023-03-14T02:55:29;13.70;66.60
49132;DHT22;35149;51.196;6.204;2023-03-14T02:58:02;13.70;66.70
49132;DHT22;35149;51.196;6.204;2023-03-14T03:00:30;13.70;66.70
49132;DHT22;35149;51.196;6.204;2023-03-14T03:02:57;13.70;66.80
49132;DHT22;35149;51.196;6.204;2023-03-14T03:05:28;13.70;66.80
49132;DHT22;35149;51.196;6.204;2023-03-14T03:07:57;13.70;66.80
49132;DHT22;35149;51.196;6.204;2023-03-14T03:10:27;13.80;66.90
49132;DHT22;35149;51.196;6.204;2023-03-14T03:12:59;13.80;66.90
49132;DHT22;35149;51.196;6.204;2023-03-14T03:15:28;13.80;66.90
49132;DHT22;35149;51.196;6.204;2023-03-14T03:17:58;13.80;66.90
49132;DHT22;35149;51.196;6.204;2023-03-14T03:20:30;13.80;66.80
49132;DHT22;35149;51.196;6.204;2023-03-14T03:23:02;13.80;66.90
49132;DHT22;35149;51.196;6.204;2023-03-14T03:25:30;13.80;67.00
49132;DHT22;35149;51.196;6.204;2023-03-14T03:28:04;13.80;67.00
49132;DHT22;35149;51.196;6.204;2023-03-14T03:30:40;13.80;67.10
49132;DHT22;35149;51.196;6.204;2023-03-14T03:33:18;13.80;67.20
49132;DHT22;35149;51.196;6.204;2023-03-14T03:35:46;13.80;67.40
49132;DHT22;35149;51.196;6.204;2023-03-14T03:38:23;13.70;67.60
49132;DHT22;35149;51.196;6.204;2023-03-14T03:40:53;13.70;67.50
49132;DHT22;35149;51.196;6.204;2023-03-14T03:43:23;13.70;67.70
49132;DHT22;35149;51.196;6.204;2023-03-14T03:45:56;13.60;67.80
49132;DHT22;35149;51.196;6.204;2023-03-14T03:48:26;13.60;68.30
49132;DHT22;35149;51.196;6.204;2023-03-14T03:50:53;13.50;68.30
49132;DHT22;35149;51.196;6.204;2023-03-14T03:53:22;13.40;68.50
49132;DHT22;35149;51.196;6.204;2023-03-14T03:56:05;13.40;68.70
49132;DHT22;35149;51.196;6.204;2023-03-14T03:58:33;13.40;68.90
49132;DHT22;35149;51.196;6.204;2023-03-14T04:01:01;13.30;69.10
49132;DHT22;35149;51.196;6.204;2023-03-14T04:03:35;13.30;69.40
49132;DHT22;35149;51.196;6.204;2023-03-14T04:06:09;13.20;69.80
49132;DHT22;35149;51.196;6.204;2023-03-14T04:08:41;13.20;69.80
49132;DHT22;35149;51.196;6.204;2023-03-14T04:11:24;13.10;69.80
49132;DHT22;35149;51.196;6.204;2023-03-14T04:14:11;13.10;69.80
49132;DHT22;35149;51.196;6.204;2023-03-14T04:16:38;13.10;69.90
49132;DHT22;35149;51.196;6.204;2023-03-14T04:19:10;13.00;70.10
49132;DHT22;35149;51.196;6.204;2023-03-14T04:21:44;12.90;70.20
49132;DHT22;35149;51.196;6.204;2023-03-14T04:24:23;13.00;70.70
49132;DHT22;35149;51.196;6.204;2023-03-14T04:26:50;12.90;70.70
49132;DHT22;35149;51.196;6.204;2023-03-14T04:29:21;12.80;70.60
49132;DHT22;35149;51.196;6.204;2023-03-14T04:31:51;12.90;71.00
49132;DHT22;35149;51.196;6.204;2023-03-14T04:34:20;12.80;71.30
49132;DHT22;35149;51.196;6.204;2023-03-14T04:36:52;12.80;71.30
49132;DHT22;35149;51.196;6.204;2023-03-14T04:39:25;12.80;71.50
49132;DHT22;35149;51.196;6.204;2023-03-14T04:42:07;12.80;71.60
49132;DHT22;35149;51.196;6.204;2023-03-14T04:44:38;12.70;71.90
49132;DHT22;35149;51.196;6.204;2023-03-14T04:47:09;12.70;71.90
49132;DHT22;35149;51.196;6.204;2023-03-14T04:49:38;12.80;72.40
49132;DHT22;35149;51.196;6.204;2023-03-14T04:52:09;12.70;72.20
49132;DHT22;35149;51.196;6.204;2023-03-14T04:54:37;12.70;72.60
49132;DHT22;35149;51.196;6.204;2023-03-14T04:57:05;12.70;72.60
49132;DHT22;35149;51.196;6.204;2023-03-14T04:59:35;12.70;72.60
49132;DHT22;35149;51.196;6.204;2023-03-14T05:02:20;12.70;72.60
49132;DHT22;35149;51.196;6.204;2023-03-14T05:05:00;12.80;72.60
49132;DHT22;35149;51.196;6.204;2023-03-14T05:07:50;12.70;72.60
49132;DHT22;35149;51.196;6.204;2023-03-14T05:10:38;12.80;72.70
49132;DHT22;35149;51.196;6.204;2023-03-14T05:13:11;12.80;72.80
49132;DHT22;35149;51.196;6.204;2023-03-14T05:16:04;12.80;72.90
49132;DHT22;35149;51.196;6.204;2023-03-14T05:18:46;12.80;73.50
49132;DHT22;35149;51.196;6.204;2023-03-14T05:21:35;12.80;72.90
49132;DHT22;35149;51.196;6.204;2023-03-14T05:24:34;12.80;73.50
49132;DHT22;35149;51.196;6.204;2023-03-14T05:27:05;12.80;72.80
49132;DHT22;35149;51.196;6.204;2023-03-14T05:29:41;12.90;73.10
49132;DHT22;35149;51.196;6.204;2023-03-14T05:32:27;12.80;72.90
49132;DHT22;35149;51.196;6.204;2023-03-14T05:35:15;12.90;72.80
49132;DHT22;35149;51.196;6.204;2023-03-14T05:37:52;12.90;72.80
49132;DHT22;35149;51.196;6.204;2023-03-14T05:40:45;12.80;72.80
49132;DHT22;35149;51.196;6.204;2023-03-14T05:43:31;12.90;72.90
49132;DHT22;35149;51.196;6.204;2023-03-14T05:46:34;12.90;72.90
49132;DHT22;35149;51.196;6.204;2023-03-14T05:49:15;12.90;73.10
49132;DHT22;35149;51.196;6.204;2023-03-14T05:52:11;12.90;73.00
49132;DHT22;35149;51.196;6.204;2023-03-14T05:54:50;12.90;73.00
49132;DHT22;35149;51.196;6.204;2023-03-14T05:57:17;12.90;73.20
49132;DHT22;35149;51.196;6.204;2023-03-14T06:00:07;12.90;73.10
49132;DHT22;35149;51.196;6.204;2023-03-14T06:02:53;12.90;73.30
49132;DHT22;35149;51.196;6.204;2023-03-14T06:05:25;12.90;73.20
49132;DHT22;35149;51.196;6.204;2023-03-14T06:08:06;12.90;73.20
49132;DHT22;35149;51.196;6.204;2023-03-14T06:10:36;12.90;73.20
49132;DHT22;35149;51.196;6.204;2023-03-14T06:13:03;12.90;73.30
49132;DHT22;35149;51.196;6.204;2023-03-14T06:15:34;12.90;73.40
49132;DHT22;35149;51.196;6.204;2023-03-14T06:18:05;12.90;73.70
49132;DHT22;35149;51.196;6.204;2023-03-14T06:20:38;12.90;73.70
49132;DHT22;35149;51.196;6.204;2023-03-14T06:23:11;12.90;73.70
49132;DHT22;35149;51.196;6.204;2023-03-14T06:25:38;12.90;73.50
49132;DHT22;35149;51.196;6.204;2023-03-14T06:28:07;12.90;73.50
49132;DHT22;35149;51.196;6.204;2023-03-14T06:30:34;12.90;73.80
49132;DHT22;35149;51.196;6.204;2023-03-14T06:33:07;12.90;73.50
49132;DHT22;35149;51.196;6.204;2023-03-14T06:35:41;12.90;73.60
49132;DHT22;35149;51.196;6.204;2023-03-14T06:38:13;12.90;73.60
49132;DHT22;35149;51.196;6.204;2023-03-14T06:40:45;12.90;73.80
49132;DHT22;35149;51.196;6.204;2023-03-14T06:43:19;12.90;73.70
49132;DHT22;35149;51.196;6.204;2023-03-14T06:45:52;12.90;73.70
49132;DHT22;35149;51.196;6.204;2023-03-14T06:48:20;12.90;73.60
49132;DHT22;35149;51.196;6.204;2023-03-14T06:50:54;12.90;73.60
49132;DHT22;35149;51.196;6.204;2023-03-14T06:53:23;12.90;73.70
49132;DHT22;35149;51.196;6.204;2023-03-14T06:55:53;13.00;73.90
49132;DHT22;35149;51.196;6.204;2023-03-14T06:58:28;13.00;74.00
49132;DHT22;35149;51.196;6.204;2023-03-14T07:00:54;13.00;74.40
49132;DHT22;35149;51.196;6.204;2023-03-14T07:03:33;13.00;74.40
49132;DHT22;35149;51.196;6.204;2023-03-14T07:06:00;13.10;74.40
49132;DHT22;35149;51.196;6.204;2023-03-14T07:08:32;13.10;74.40
49132;DHT22;35149;51.196;6.204;2023-03-14T07:11:03;13.10;74.20
49132;DHT22;35149;51.196;6.204;2023-03-14T07:13:33;13.10;74.40
49132;DHT22;35149;51.196;6.204;2023-03-14T07:16:17;13.20;75.00
49132;DHT22;35149;51.196;6.204;2023-03-14T07:18:50;13.20;74.40
49132;DHT22;35149;51.196;6.204;2023-03-14T07:21:21;13.20;74.00
49132;DHT22;35149;51.196;6.204;2023-03-14T07:23:51;13.20;74.10
49132;DHT22;35149;51.196;6.204;2023-03-14T07:26:21;13.20;74.00
49132;DHT22;35149;51.196;6.204;2023-03-14T07:28:54;13.20;74.20
49132;DHT22;35149;51.196;6.204;2023-03-14T07:31:22;13.20;74.20
49132;DHT22;35149;51.196;6.204;2023-03-14T07:33:49;13.30;74.10
49132;DHT22;35149;51.196;6.204;2023-03-14T07:36:23;13.30;74.30
49132;DHT22;35149;51.196;6.204;2023-03-14T07:38:51;13.30;74.30
49132;DHT22;35149;51.196;6.204;2023-03-14T07:41:32;13.30;74.10
49132;DHT22;35149;51.196;6.204;2023-03-14T07:44:17;13.40;74.20
49132;DHT22;35149;51.196;6.204;2023-03-14T07:46:46;13.40;74.00
49132;DHT22;35149;51.196;6.204;2023-03-14T07:49:20;13.50;73.90
49132;DHT22;35149;51.196;6.204;2023-03-14T07:51:51;13.50;73.80
49132;DHT22;35149;51.196;6.204;2023-03-14T07:54:18;13.60;73.80
49132;DHT22;35149;51.196;6.204;2023-03-14T07:56:46;13.60;73.90
49132;DHT22;35149;51.196;6.204;2023-03-14T07:59:13;13.60;73.70
49132;DHT22;35149;51.196;6.204;2023-03-14T08:01:42;13.70;73.50
49132;DHT22;35149;51.196;6.204;2023-03-14T08:04:11;13.80;73.30
49132;DHT22;35149;51.196;6.204;2023-03-14T08:06:43;13.80;73.30
49132;DHT22;35149;51.196;6.204;2023-03-14T08:09:12;13.80;73.00
49132;DHT22;35149;51.196;6.204;2023-03-14T08:11:41;13.90;73.10
49132;DHT22;35149;51.196;6.204;2023-03-14T08:14:10;13.90;73.10
49132;DHT22;35149;51.196;6.204;2023-03-14T08:16:41;13.90;73.10
49132;DHT22;35149;51.196;6.204;2023-03-14T08:19:07;13.90;73.10
49132;DHT22;35149;51.196;6.204;2023-03-14T08:21:37;13.90;73.10
49132;DHT22;35149;51.196;6.204;2023-03-14T08:24:16;13.90;73.10
49132;DHT22;35149;51.196;6.204;2023-03-14T08:26:43;13.90;73.40
49132;DHT22;35149;51.196;6.204;2023-03-14T08:29:13;13.90;73.60
49132;DHT22;35149;51.196;6.204;2023-03-14T08:31:39;13.80;73.70
49132;DHT22;35149;51.196;6.204;2023-03-14T08:34:06;13.80;73.90
49132;DHT22;35149;51.196;6.204;2023-03-14T08:36:37;13.80;74.10
49132;DHT22;35149;51.196;6.204;2023-03-14T08:39:06;13.80;74.60
49132;DHT22;35149;51.196;6.204;2023-03-14T08:41:34;13.80;74.80
49132;DHT22;35149;51.196;6.204;2023-03-14T08:44:09;13.80;76.70
49132;DHT22;35149;51.196;6.204;2023-03-14T08:46:41;13.70;75.80
49132;DHT22;35149;51.196;6.204;2023-03-14T08:49:08;13.60;73.90
49132;DHT22;35149;51.196;6.204;2023-03-14T08:51:37;13.40;73.70
49132;DHT22;35149;51.196;6.204;2023-03-14T08:54:05;13.30;73.80
49132;DHT22;35149;51.196;6.204;2023-03-14T08:56:40;13.00;73.80
49132;DHT22;35149;51.196;6.204;2023-03-14T08:59:09;12.80;74.20
49132;DHT22;35149;51.196;6.204;2023-03-14T09:01:39;12.70;74.70
49132;DHT22;35149;51.196;6.204;2023-03-14T09:04:23;12.50;75.30
49132;DHT22;35149;51.196;6.204;2023-03-14T09:06:51;12.30;75.50
49132;DHT22;35149;51.196;6.204;2023-03-14T09:09:17;12.20;76.00
49132;DHT22;35149;51.196;6.204;2023-03-14T09:11:53;12.00;76.60
49132;DHT22;35149;51.196;6.204;2023-03-14T09:14:25;11.90;77.10
49132;DHT22;35149;51.196;6.204;2023-03-14T09:16:52;11.80;77.70
49132;DHT22;35149;51.196;6.204;2023-03-14T09:19:28;11.80;77.90
49132;DHT22;35149;51.196;6.204;2023-03-14T09:21:59;11.70;78.40
49132;DHT22;35149;51.196;6.204;2023-03-14T09:24:26;11.70;78.30
49132;DHT22;35149;51.196;6.204;2023-03-14T09:26:57;11.60;78.80
49132;DHT22;35149;51.196;6.204;2023-03-14T09:29:23;11.60;79.10
49132;DHT22;35149;51.196;6.204;2023-03-14T09:31:51;11.50;79.20
49132;DHT22;35149;51.196;6.204;2023-03-14T09:34:20;11.50;79.20
49132;DHT22;35149;51.196;6.204;2023-03-14T09:36:47;11.50;79.40
49132;DHT22;35149;51.196;6.204;2023-03-14T09:39:21;11.40;79.40
49132;DHT22;35149;51.196;6.204;2023-03-14T09:41:52;11.40;79.90
49132;DHT22;35149;51.196;6.204;2023-03-14T09:44:32;11.40;79.50
49132;DHT22;35149;51.196;6.204;2023-03-14T09:47:07;11.30;79.60
49132;DHT22;35149;51.196;6.204;2023-03-14T09:49:40;11.30;79.90
49132;DHT22;35149;51.196;6.204;2023-03-14T09:54:44;11.30;80.30
49132;DHT22;35149;51.196;6.204;2023-03-14T09:57:17;11.30;80.60
49132;DHT22;35149;51.196;6.204;2023-03-14T09:59:46;11.30;80.60
49132;DHT22;35149;51.196;6.204;2023-03-14T10:02:25;11.30;80.70
49132;DHT22;35149;51.196;6.204;2023-03-14T10:04:56;11.30;81.00
49132;DHT22;35149;51.196;6.204;2023-03-14T10:07:31;11.30;80.80
49132;DHT22;35149;51.196;6.204;2023-03-14T10:10:00;11.30;81.00
49132;DHT22;35149;51.196;6.204;2023-03-14T10:12:35;11.40;80.90
49132;DHT22;35149;51.196;6.204;2023-03-14T10:15:14;11.40;81.20
49132;DHT22;35149;51.196;6.204;2023-03-14T10:17:50;11.40;80.80
49132;DHT22;35149;51.196;6.204;2023-03-14T10:20:34;11.40;80.50
49132;DHT22;35149;51.196;6.204;2023-03-14T10:25:46;11.40;80.60
49132;DHT22;35149;51.196;6.204;2023-03-14T10:28:26;11.40;80.20
49132;DHT22;35149;51.196;6.204;2023-03-14T10:30:59;11.40;81.40
49132;DHT22;35149;51.196;6.204;2023-03-14T10:33:35;11.40;81.60
49132;DHT22;35149;51.196;6.204;2023-03-14T10:36:20;11.40;81.80
49132;DHT22;35149;51.196;6.204;2023-03-14T10:39:21;11.50;82.90
49132;DHT22;35149;51.196;6.204;2023-03-14T10:41:52;11.50;81.60
49132;DHT22;35149;51.196;6.204;2023-03-14T10:44:21;11.60;81.00
49132;DHT22;35149;51.196;6.204;2023-03-14T10:47:03;11.60;80.60
49132;DHT22;35149;51.196;6.204;2023-03-14T10:49:36;11.60;78.70
49132;DHT22;35149;51.196;6.204;2023-03-14T10:54:41;11.30;77.50
49132;DHT22;35149;51.196;6.204;2023-03-14T10:57:15;11.20;77.30
49132;DHT22;35149;51.196;6.204;2023-03-14T10:59:45;11.00;77.60
49132;DHT22;35149;51.196;6.204;2023-03-14T11:02:31;10.90;77.60
49132;DHT22;35149;51.196;6.204;2023-03-14T11:05:34;10.80;78.60
49132;DHT22;35149;51.196;6.204;2023-03-14T11:08:14;10.70;79.30
49132;DHT22;35149;51.196;6.204;2023-03-14T11:10:50;10.60;79.50
49132;DHT22;35149;51.196;6.204;2023-03-14T11:13:43;10.60;80.00
49132;DHT22;35149;51.196;6.204;2023-03-14T11:27:09;10.50;80.80
49132;DHT22;35149;51.196;6.204;2023-03-14T11:29:51;10.60;81.70
49132;DHT22;35149;51.196;6.204;2023-03-14T11:32:50;10.60;80.90
49132;DHT22;35149;51.196;6.204;2023-03-14T11:40:50;10.60;79.90
49132;DHT22;35149;51.196;6.204;2023-03-14T11:43:30;10.50;79.20
49132;DHT22;35149;51.196;6.204;2023-03-14T11:46:36;10.50;78.80
49132;DHT22;35149;51.196;6.204;2023-03-14T11:52:02;10.40;80.10
49132;DHT22;35149;51.196;6.204;2023-03-14T11:57:33;10.50;80.50
49132;DHT22;35149;51.196;6.204;2023-03-14T12:00:17;10.50;79.50
49132;DHT22;35149;51.196;6.204;2023-03-14T12:06:13;10.50;79.90
49132;DHT22;35149;51.196;6.204;2023-03-14T12:08:59;10.60;80.80
49132;DHT22;35149;51.196;6.204;2023-03-14T12:14:27;10.70;79.10
49132;DHT22;35149;51.196;6.204;2023-03-14T12:17:05;10.70;79.10
49132;DHT22;35149;51.196;6.204;2023-03-14T12:19:39;10.80;79.70
49132;DHT22;35149;51.196;6.204;2023-03-14T12:25:02;10.80;79.00
49132;DHT22;35149;51.196;6.204;2023-03-14T12:28:18;10.90;80.10
49132;DHT22;35149;51.196;6.204;2023-03-14T12:30:47;11.10;82.20
49132;DHT22;35149;51.196;6.204;2023-03-14T12:35:56;11.40;81.10
49132;DHT22;35149;51.196;6.204;2023-03-14T12:38:43;11.50;80.00
49132;DHT22;35149;51.196;6.204;2023-03-14T12:43:44;11.60;76.60
49132;DHT22;35149;51.196;6.204;2023-03-14T12:48:53;11.40;74.10
49132;DHT22;35149;51.196;6.204;2023-03-14T12:51:38;11.20;74.20
49132;DHT22;35149;51.196;6.204;2023-03-14T12:56:56;10.80;75.80
49132;DHT22;35149;51.196;6.204;2023-03-14T12:59:32;10.60;75.80
49132;DHT22;35149;51.196;6.204;2023-03-14T13:02:14;10.60;77.70
49132;DHT22;35149;51.196;6.204;2023-03-14T13:05:25;10.50;77.00
49132;DHT22;35149;51.196;6.204;2023-03-14T13:10:32;10.30;77.90
49132;DHT22;35149;51.196;6.204;2023-03-14T13:13:23;10.30;77.80
49132;DHT22;35149;51.196;6.204;2023-03-14T13:15:57;10.30;78.30
49132;DHT22;35149;51.196;6.204;2023-03-14T13:18:36;10.30;79.00
49132;DHT22;35149;51.196;6.204;2023-03-14T13:21:11;10.40;80.00
49132;DHT22;35149;51.196;6.204;2023-03-14T13:23:38;10.40;79.20
49132;DHT22;35149;51.196;6.204;2023-03-14T13:26:13;10.40;78.70
49132;DHT22;35149;51.196;6.204;2023-03-14T13:28:41;10.50;77.70
49132;DHT22;35149;51.196;6.204;2023-03-14T13:31:24;10.50;77.30
49132;DHT22;35149;51.196;6.204;2023-03-14T13:34:09;10.40;77.50
49132;DHT22;35149;51.196;6.204;2023-03-14T13:36:39;10.40;78.50
49132;DHT22;35149;51.196;6.204;2023-03-14T13:39:17;10.40;78.30
49132;DHT22;35149;51.196;6.204;2023-03-14T13:41:46;10.50;78.70
49132;DHT22;35149;51.196;6.204;2023-03-14T13:44:27;10.50;78.80
49132;DHT22;35149;51.196;6.204;2023-03-14T13:47:04;10.60;78.80
49132;DHT22;35149;51.196;6.204;2023-03-14T13:49:33;10.80;78.20
49132;DHT22;35149;51.196;6.204;2023-03-14T13:52:02;10.90;77.60
49132;DHT22;35149;51.196;6.204;2023-03-14T13:54:31;11.00;76.40
49132;DHT22;35149;51.196;6.204;2023-03-14T13:57:02;11.10;74.10
49132;DHT22;35149;51.196;6.204;2023-03-14T13:59:31;11.10;72.80
49132;DHT22;35149;51.196;6.204;2023-03-14T14:02:09;11.20;72.60
49132;DHT22;35149;51.196;6.204;2023-03-14T14:04:37;11.20;72.20
49132;DHT22;35149;51.196;6.204;2023-03-14T14:07:13;11.10;72.70
49132;DHT22;35149;51.196;6.204;2023-03-14T14:09:48;11.20;71.40
49132;DHT22;35149;51.196;6.204;2023-03-14T14:12:19;11.20;71.20
49132;DHT22;35149;51.196;6.204;2023-03-14T14:17:40;11.30;70.60
49132;DHT22;35149;51.196;6.204;2023-03-14T14:20:15;11.30;71.10
49132;DHT22;35149;51.196;6.204;2023-03-14T14:22:45;11.40;70.00
49132;DHT22;35149;51.196;6.204;2023-03-14T14:25:16;11.40;69.80
49132;DHT22;35149;51.196;6.204;2023-03-14T14:27:47;11.40;69.20
49132;DHT22;35149;51.196;6.204;2023-03-14T14:32:49;11.40;68.50
49132;DHT22;35149;51.196;6.204;2023-03-14T14:35:24;11.40;68.30
49132;DHT22;35149;51.196;6.204;2023-03-14T14:37:53;11.40;67.00
49132;DHT22;35149;51.196;6.204;2023-03-14T14:40:27;11.40;66.80
49132;DHT22;35149;51.196;6.204;2023-03-14T14:43:05;11.40;66.00
49132;DHT22;35149;51.196;6.204;2023-03-14T14:45:42;11.40;63.90
49132;DHT22;35149;51.196;6.204;2023-03-14T14:48:13;11.50;63.70
49132;DHT22;35149;51.196;6.204;2023-03-14T14:51:02;11.50;64.40
49132;DHT22;35149;51.196;6.204;2023-03-14T14:56:04;11.60;64.90
49132;DHT22;35149;51.196;6.204;2023-03-14T14:58:44;11.70;63.30
49132;DHT22;35149;51.196;6.204;2023-03-14T15:01:15;11.70;63.00
49132;DHT22;35149;51.196;6.204;2023-03-14T15:03:46;11.80;63.10
49132;DHT22;35149;51.196;6.204;2023-03-14T15:06:15;11.80;62.70
49132;DHT22;35149;51.196;6.204;2023-03-14T15:08:46;11.90;61.20
49132;DHT22;35149;51.196;6.204;2023-03-14T15:11:17;11.90;60.00
49132;DHT22;35149;51.196;6.204;2023-03-14T15:13:49;11.90;58.80
49132;DHT22;35149;51.196;6.204;2023-03-14T15:16:31;11.90;58.20
49132;DHT22;35149;51.196;6.204;2023-03-14T15:19:00;11.80;58.00
49132;DHT22;35149;51.196;6.204;2023-03-14T15:21:32;11.80;57.90
49132;DHT22;35149;51.196;6.204;2023-03-14T15:23:59;11.80;58.50
49132;DHT22;35149;51.196;6.204;2023-03-14T15:26:27;11.80;58.10
49132;DHT22;35149;51.196;6.204;2023-03-14T15:28:55;11.70;57.30
49132;DHT22;35149;51.196;6.204;2023-03-14T15:31:29;11.70;57.10
49132;DHT22;35149;51.196;6.204;2023-03-14T15:33:58;11.70;57.00
49132;DHT22;35149;51.196;6.204;2023-03-14T15:36:33;11.60;58.00
49132;DHT22;35149;51.196;6.204;2023-03-14T15:39:05;11.60;57.10
49132;DHT22;35149;51.196;6.204;2023-03-14T15:41:41;11.50;57.10
49132;DHT22;35149;51.196;6.204;2023-03-14T15:44:09;11.50;57.50
49132;DHT22;35149;51.196;6.204;2023-03-14T15:46:35;11.40;57.50
49132;DHT22;35149;51.196;6.204;2023-03-14T15:49:04;11.40;57.40
49132;DHT22;35149;51.196;6.204;2023-03-14T15:51:32;11.30;57.60
49132;DHT22;35149;51.196;6.204;2023-03-14T15:54:02;11.30;56.60
49132;DHT22;35149;51.196;6.204;2023-03-14T15:56:29;11.20;56.90
49132;DHT22;35149;51.196;6.204;2023-03-14T15:58:57;11.20;57.40
49132;DHT22;35149;51.196;6.204;2023-03-14T16:01:24;11.10;57.20
49132;DHT22;35149;51.196;6.204;2023-03-14T16:03:57;11.10;56.40
49132;DHT22;35149;51.196;6.204;2023-03-14T16:06:29;11.00;56.50
49132;DHT22;35149;51.196;6.204;2023-03-14T16:09:03;11.00;55.10
49132;DHT22;35149;51.196;6.204;2023-03-14T16:11:35;10.90;54.60
49132;DHT22;35149;51.196;6.204;2023-03-14T16:14:01;10.80;54.60
49132;DHT22;35149;51.196;6.204;2023-03-14T16:16:28;10.80;55.20
49132;DHT22;35149;51.196;6.204;2023-03-14T16:18:57;10.70;55.50
49132;DHT22;35149;51.196;6.204;2023-03-14T16:21:39;10.60;55.20
49132;DHT22;35149;51.196;6.204;2023-03-14T16:24:11;10.50;55.30
49132;DHT22;35149;51.196;6.204;2023-03-14T16:26:40;10.50;55.60
49132;DHT22;35149;51.196;6.204;2023-03-14T16:29:09;10.40;56.60
49132;DHT22;35149;51.196;6.204;2023-03-14T16:31:39;10.40;55.50
49132;DHT22;35149;51.196;6.204;2023-03-14T16:34:13;10.30;56.30
49132;DHT22;35149;51.196;6.204;2023-03-14T16:36:40;10.30;55.90
49132;DHT22;35149;51.196;6.204;2023-03-14T16:39:08;10.20;55.80
49132;DHT22;35149;51.196;6.204;2023-03-14T16:41:34;10.20;55.30
49132;DHT22;35149;51.196;6.204;2023-03-14T16:44:02;10.10;55.40
49132;DHT22;35149;51.196;6.204;2023-03-14T16:46:43;10.10;55.50
49132;DHT22;35149;51.196;6.204;2023-03-14T16:49:10;10.00;55.90
49132;DHT22;35149;51.196;6.204;2023-03-14T16:51:38;10.00;55.90
49132;DHT22;35149;51.196;6.204;2023-03-14T16:54:09;10.00;56.00
49132;DHT22;35149;51.196;6.204;2023-03-14T16:56:36;9.90;55.10
49132;DHT22;35149;51.196;6.204;2023-03-14T16:59:04;9.90;55.60
49132;DHT22;35149;51.196;6.204;2023-03-14T17:01:32;9.80;55.70
49132;DHT22;35149;51.196;6.204;2023-03-14T17:04:05;9.80;55.30
49132;DHT22;35149;51.196;6.204;2023-03-14T17:06:38;9.80;55.50
49132;DHT22;35149;51.196;6.204;2023-03-14T17:09:05;9.70;55.40
49132;DHT22;35149;51.196;6.204;2023-03-14T17:11:32;9.60;55.10
49132;DHT22;35149;51.196;6.204;2023-03-14T17:14:00;9.60;55.40
49132;DHT22;35149;51.196;6.204;2023-03-14T17:16:28;9.60;55.50
49132;DHT22;35149;51.196;6.204;2023-03-14T17:18:57;9.50;55.40
49132;DHT22;35149;51.196;6.204;2023-03-14T17:21:28;9.50;55.60